sensor_id;sensor_type;location;lat;lon;timestamp;P1;durP1;ratioP1;P2;durP2;ratioP2
37297;SDS011;30517;51.932;4.278;2024-03-08T00:02:05;20.40;;;12.02;;
37297;SDS011;30517;51.932;4.278;2024-03-08T00:04:47;19.83;;;12.63;;
37297;SDS011;30517;51.932;4.278;2024-03-08T00:07:27;20.98;;;13.38;;
37297;SDS011;30517;51.932;4.278;2024-03-08T00:10:09;24.40;;;12.95;;
37297;SDS011;30517;51.932;4.278;2024-03-08T00:12:52;21.67;;;12.15;;
37297;SDS011;30517;51.932;4.278;2024-03-08T00:15:33;23.05;;;12.98;;
37297;SDS011;30517;51.932;4.278;2024-03-08T00:18:14;21.55;;;12.80;;
37297;SDS011;30517;51.932;4.278;2024-03-08T00:20:55;19.75;;;12.13;;
37297;SDS011;30517;51.932;4.278;2024-03-08T00:23:36;18.90;;;11.77;;
37297;SDS011;30517;51.932;4.278;2024-03-08T00:26:17;19.60;;;12.55;;
37297;SDS011;30517;51.932;4.278;2024-03-08T00:28:58;19.40;;;11.45;;
37297;SDS011;30517;51.932;4.278;2024-03-08T00:31:39;23.75;;;12.48;;
37297;SDS011;30517;51.932;4.278;2024-03-08T00:34:20;19.00;;;12.52;;
37297;SDS011;30517;51.932;4.278;2024-03-08T00:37:00;20.73;;;12.32;;
37297;SDS011;30517;51.932;4.278;2024-03-08T00:39:41;21.63;;;11.60;;
37297;SDS011;30517;51.932;4.278;2024-03-08T00:42:22;23.70;;;12.63;;
37297;SDS011;30517;51.932;4.278;2024-03-08T00:45:04;24.38;;;12.25;;
37297;SDS011;30517;51.932;4.278;2024-03-08T00:47:45;21.55;;;13.40;;
37297;SDS011;30517;51.932;4.278;2024-03-08T00:50:26;18.50;;;12.35;;
37297;SDS011;30517;51.932;4.278;2024-03-08T00:53:07;23.45;;;13.18;;
37297;SDS011;30517;51.932;4.278;2024-03-08T00:55:48;20.02;;;12.77;;
37297;SDS011;30517;51.932;4.278;2024-03-08T00:58:28;19.15;;;11.20;;
37297;SDS011;30517;51.932;4.278;2024-03-08T01:01:10;20.25;;;11.60;;
37297;SDS011;30517;51.932;4.278;2024-03-08T01:03:57;18.85;;;11.80;;
37297;SDS011;30517;51.932;4.278;2024-03-08T01:06:38;19.55;;;12.50;;
37297;SDS011;30517;51.932;4.278;2024-03-08T01:09:19;21.05;;;11.65;;
37297;SDS011;30517;51.932;4.278;2024-03-08T01:12:01;19.27;;;11.80;;
37297;SDS011;30517;51.932;4.278;2024-03-08T01:14:42;20.00;;;11.63;;
37297;SDS011;30517;51.932;4.278;2024-03-08T01:17:23;19.98;;;12.55;;
37297;SDS011;30517;51.932;4.278;2024-03-08T01:20:05;21.13;;;12.60;;
37297;SDS011;30517;51.932;4.278;2024-03-08T01:22:46;21.38;;;12.65;;
37297;SDS011;30517;51.932;4.278;2024-03-08T01:25:27;23.02;;;12.32;;
37297;SDS011;30517;51.932;4.278;2024-03-08T01:28:08;21.25;;;12.48;;
37297;SDS011;30517;51.932;4.278;2024-03-08T01:30:49;22.42;;;12.13;;
37297;SDS011;30517;51.932;4.278;2024-03-08T01:33:35;21.13;;;12.02;;
37297;SDS011;30517;51.932;4.278;2024-03-08T01:36:16;20.73;;;13.07;;
37297;SDS011;30517;51.932;4.278;2024-03-08T01:38:59;22.45;;;13.73;;
37297;SDS011;30517;51.932;4.278;2024-03-08T01:41:40;22.52;;;13.27;;
37297;SDS011;30517;51.932;4.278;2024-03-08T01:44:21;20.60;;;12.32;;
37297;SDS011;30517;51.932;4.278;2024-03-08T01:47:02;19.10;;;11.55;;
37297;SDS011;30517;51.932;4.278;2024-03-08T01:49:43;25.27;;;14.25;;
37297;SDS011;30517;51.932;4.278;2024-03-08T01:52:24;20.67;;;11.88;;
37297;SDS011;30517;51.932;4.278;2024-03-08T01:55:06;20.20;;;12.15;;
37297;SDS011;30517;51.932;4.278;2024-03-08T01:57:47;25.67;;;13.73;;
37297;SDS011;30517;51.932;4.278;2024-03-08T02:00:28;20.20;;;12.82;;
37297;SDS011;30517;51.932;4.278;2024-03-08T02:03:11;19.88;;;12.88;;
37297;SDS011;30517;51.932;4.278;2024-03-08T02:05:52;20.92;;;11.65;;
37297;SDS011;30517;51.932;4.278;2024-03-08T02:08:32;18.58;;;12.05;;
37297;SDS011;30517;51.932;4.278;2024-03-08T02:11:14;20.92;;;12.02;;
37297;SDS011;30517;51.932;4.278;2024-03-08T02:13:56;19.02;;;11.63;;
37297;SDS011;30517;51.932;4.278;2024-03-08T02:16:36;19.75;;;12.52;;
37297;SDS011;30517;51.932;4.278;2024-03-08T02:19:17;21.52;;;12.05;;
37297;SDS011;30517;51.932;4.278;2024-03-08T02:22:00;18.75;;;11.93;;
37297;SDS011;30517;51.932;4.278;2024-03-08T02:24:44;18.70;;;12.68;;
37297;SDS011;30517;51.932;4.278;2024-03-08T02:27:25;21.60;;;12.25;;
37297;SDS011;30517;51.932;4.278;2024-03-08T02:30:06;19.50;;;11.90;;
37297;SDS011;30517;51.932;4.278;2024-03-08T02:32:48;20.77;;;13.02;;
37297;SDS011;30517;51.932;4.278;2024-03-08T02:35:29;19.13;;;12.45;;
37297;SDS011;30517;51.932;4.278;2024-03-08T02:38:10;20.20;;;12.65;;
37297;SDS011;30517;51.932;4.278;2024-03-08T02:40:51;21.63;;;12.50;;
37297;SDS011;30517;51.932;4.278;2024-03-08T02:43:33;18.55;;;12.23;;
37297;SDS011;30517;51.932;4.278;2024-03-08T02:46:14;18.52;;;11.50;;
37297;SDS011;30517;51.932;4.278;2024-03-08T02:48:55;22.08;;;13.73;;
37297;SDS011;30517;51.932;4.278;2024-03-08T02:51:36;21.50;;;13.10;;
37297;SDS011;30517;51.932;4.278;2024-03-08T02:54:19;18.85;;;11.25;;
37297;SDS011;30517;51.932;4.278;2024-03-08T02:57:00;21.33;;;12.45;;
37297;SDS011;30517;51.932;4.278;2024-03-08T02:59:41;19.85;;;11.98;;
37297;SDS011;30517;51.932;4.278;2024-03-08T03:02:22;15.48;;;11.50;;
37297;SDS011;30517;51.932;4.278;2024-03-08T03:05:04;18.55;;;12.00;;
37297;SDS011;30517;51.932;4.278;2024-03-08T03:07:46;19.92;;;11.50;;
37297;SDS011;30517;51.932;4.278;2024-03-08T03:10:28;18.15;;;11.40;;
37297;SDS011;30517;51.932;4.278;2024-03-08T03:13:09;18.02;;;12.05;;
37297;SDS011;30517;51.932;4.278;2024-03-08T03:15:50;17.13;;;11.70;;
37297;SDS011;30517;51.932;4.278;2024-03-08T03:18:31;18.02;;;12.52;;
37297;SDS011;30517;51.932;4.278;2024-03-08T03:21:13;18.70;;;12.52;;
37297;SDS011;30517;51.932;4.278;2024-03-08T03:23:54;19.70;;;12.13;;
37297;SDS011;30517;51.932;4.278;2024-03-08T03:26:36;19.30;;;12.30;;
37297;SDS011;30517;51.932;4.278;2024-03-08T03:29:19;18.48;;;11.43;;
37297;SDS011;30517;51.932;4.278;2024-03-08T03:32:00;17.42;;;10.88;;
37297;SDS011;30517;51.932;4.278;2024-03-08T03:34:42;18.50;;;11.60;;
37297;SDS011;30517;51.932;4.278;2024-03-08T03:37:24;16.52;;;11.45;;
37297;SDS011;30517;51.932;4.278;2024-03-08T03:40:05;20.23;;;12.38;;
37297;SDS011;30517;51.932;4.278;2024-03-08T03:42:48;19.08;;;12.05;;
37297;SDS011;30517;51.932;4.278;2024-03-08T03:45:29;17.50;;;11.05;;
37297;SDS011;30517;51.932;4.278;2024-03-08T03:48:13;15.98;;;11.40;;
37297;SDS011;30517;51.932;4.278;2024-03-08T03:50:54;20.27;;;12.48;;
37297;SDS011;30517;51.932;4.278;2024-03-08T03:53:35;18.92;;;11.48;;
37297;SDS011;30517;51.932;4.278;2024-03-08T03:56:16;17.50;;;11.45;;
37297;SDS011;30517;51.932;4.278;2024-03-08T03:58:57;17.20;;;11.40;;
37297;SDS011;30517;51.932;4.278;2024-03-08T04:01:41;18.83;;;11.60;;
37297;SDS011;30517;51.932;4.278;2024-03-08T04:04:23;21.10;;;12.45;;
37297;SDS011;30517;51.932;4.278;2024-03-08T04:07:04;18.63;;;11.18;;
37297;SDS011;30517;51.932;4.278;2024-03-08T04:09:45;16.73;;;11.70;;
37297;SDS011;30517;51.932;4.278;2024-03-08T04:12:26;16.90;;;11.25;;
37297;SDS011;30517;51.932;4.278;2024-03-08T04:15:09;19.75;;;12.48;;
37297;SDS011;30517;51.932;4.278;2024-03-08T04:17:50;18.08;;;11.95;;
37297;SDS011;30517;51.932;4.278;2024-03-08T04:20:32;18.20;;;12.02;;
37297;SDS011;30517;51.932;4.278;2024-03-08T04:23:13;19.25;;;12.13;;
37297;SDS011;30517;51.932;4.278;2024-03-08T04:25:54;18.13;;;12.02;;
37297;SDS011;30517;51.932;4.278;2024-03-08T04:28:35;20.80;;;12.57;;
37297;SDS011;30517;51.932;4.278;2024-03-08T04:31:17;19.60;;;12.55;;
37297;SDS011;30517;51.932;4.278;2024-03-08T04:33:58;19.45;;;12.27;;
37297;SDS011;30517;51.932;4.278;2024-03-08T04:36:38;15.95;;;11.35;;
37297;SDS011;30517;51.932;4.278;2024-03-08T04:39:19;17.80;;;11.52;;
37297;SDS011;30517;51.932;4.278;2024-03-08T04:42:02;19.45;;;11.75;;
37297;SDS011;30517;51.932;4.278;2024-03-08T04:44:43;18.83;;;11.95;;
37297;SDS011;30517;51.932;4.278;2024-03-08T04:47:25;19.70;;;11.43;;
37297;SDS011;30517;51.932;4.278;2024-03-08T04:50:06;18.63;;;12.30;;
37297;SDS011;30517;51.932;4.278;2024-03-08T04:52:48;19.15;;;12.45;;
37297;SDS011;30517;51.932;4.278;2024-03-08T04:55:29;20.42;;;12.90;;
37297;SDS011;30517;51.932;4.278;2024-03-08T04:58:10;16.25;;;11.65;;
37297;SDS011;30517;51.932;4.278;2024-03-08T05:00:51;21.58;;;13.40;;
37297;SDS011;30517;51.932;4.278;2024-03-08T05:03:32;22.25;;;13.05;;
37297;SDS011;30517;51.932;4.278;2024-03-08T05:06:12;17.20;;;12.32;;
37297;SDS011;30517;51.932;4.278;2024-03-08T05:08:53;21.48;;;12.60;;
37297;SDS011;30517;51.932;4.278;2024-03-08T05:11:34;18.92;;;12.73;;
37297;SDS011;30517;51.932;4.278;2024-03-08T05:14:15;22.80;;;12.52;;
37297;SDS011;30517;51.932;4.278;2024-03-08T05:16:56;18.00;;;12.18;;
37297;SDS011;30517;51.932;4.278;2024-03-08T05:19:37;21.30;;;13.82;;
37297;SDS011;30517;51.932;4.278;2024-03-08T05:22:18;18.80;;;12.23;;
37297;SDS011;30517;51.932;4.278;2024-03-08T05:24:59;18.88;;;12.50;;
37297;SDS011;30517;51.932;4.278;2024-03-08T05:27:40;16.17;;;12.30;;
37297;SDS011;30517;51.932;4.278;2024-03-08T05:30:20;19.95;;;12.98;;
37297;SDS011;30517;51.932;4.278;2024-03-08T05:33:01;23.40;;;13.48;;
37297;SDS011;30517;51.932;4.278;2024-03-08T05:35:43;20.60;;;13.77;;
37297;SDS011;30517;51.932;4.278;2024-03-08T05:38:24;22.00;;;15.38;;
37297;SDS011;30517;51.932;4.278;2024-03-08T05:41:05;28.50;;;16.13;;
37297;SDS011;30517;51.932;4.278;2024-03-08T05:43:47;22.75;;;16.13;;
37297;SDS011;30517;51.932;4.278;2024-03-08T05:46:27;22.27;;;13.82;;
37297;SDS011;30517;51.932;4.278;2024-03-08T05:49:08;23.90;;;16.40;;
37297;SDS011;30517;51.932;4.278;2024-03-08T05:51:50;23.75;;;16.08;;
37297;SDS011;30517;51.932;4.278;2024-03-08T05:54:31;19.90;;;14.98;;
37297;SDS011;30517;51.932;4.278;2024-03-08T05:57:13;22.35;;;15.52;;
37297;SDS011;30517;51.932;4.278;2024-03-08T05:59:54;25.00;;;15.27;;
37297;SDS011;30517;51.932;4.278;2024-03-08T06:02:34;24.85;;;15.73;;
37297;SDS011;30517;51.932;4.278;2024-03-08T06:05:20;24.98;;;15.27;;
37297;SDS011;30517;51.932;4.278;2024-03-08T06:08:03;24.77;;;16.52;;
37297;SDS011;30517;51.932;4.278;2024-03-08T06:10:44;21.08;;;14.00;;
37297;SDS011;30517;51.932;4.278;2024-03-08T06:13:26;24.95;;;16.77;;
37297;SDS011;30517;51.932;4.278;2024-03-08T06:16:06;20.67;;;14.75;;
37297;SDS011;30517;51.932;4.278;2024-03-08T06:18:48;21.60;;;14.88;;
37297;SDS011;30517;51.932;4.278;2024-03-08T06:21:29;23.20;;;15.52;;
37297;SDS011;30517;51.932;4.278;2024-03-08T06:24:09;20.58;;;14.57;;
37297;SDS011;30517;51.932;4.278;2024-03-08T06:26:50;24.67;;;14.07;;
37297;SDS011;30517;51.932;4.278;2024-03-08T06:29:31;22.27;;;14.82;;
37297;SDS011;30517;51.932;4.278;2024-03-08T06:32:12;20.08;;;14.32;;
37297;SDS011;30517;51.932;4.278;2024-03-08T06:34:55;23.63;;;14.93;;
37297;SDS011;30517;51.932;4.278;2024-03-08T06:37:36;21.55;;;14.95;;
37297;SDS011;30517;51.932;4.278;2024-03-08T06:40:17;22.73;;;15.50;;
37297;SDS011;30517;51.932;4.278;2024-03-08T06:42:58;23.77;;;15.27;;
37297;SDS011;30517;51.932;4.278;2024-03-08T06:45:39;23.23;;;14.50;;
37297;SDS011;30517;51.932;4.278;2024-03-08T06:48:20;24.17;;;15.65;;
37297;SDS011;30517;51.932;4.278;2024-03-08T06:51:02;21.00;;;14.50;;
37297;SDS011;30517;51.932;4.278;2024-03-08T06:53:42;25.13;;;15.05;;
37297;SDS011;30517;51.932;4.278;2024-03-08T06:56:23;22.90;;;14.48;;
37297;SDS011;30517;51.932;4.278;2024-03-08T06:59:05;22.60;;;13.43;;
37297;SDS011;30517;51.932;4.278;2024-03-08T07:01:46;23.20;;;14.50;;
37297;SDS011;30517;51.932;4.278;2024-03-08T07:04:28;20.67;;;13.43;;
37297;SDS011;30517;51.932;4.278;2024-03-08T07:07:09;19.05;;;14.10;;
37297;SDS011;30517;51.932;4.278;2024-03-08T07:09:50;23.98;;;14.38;;
37297;SDS011;30517;51.932;4.278;2024-03-08T07:12:31;19.27;;;12.77;;
37297;SDS011;30517;51.932;4.278;2024-03-08T07:15:12;20.60;;;13.77;;
37297;SDS011;30517;51.932;4.278;2024-03-08T07:17:54;21.80;;;14.07;;
37297;SDS011;30517;51.932;4.278;2024-03-08T07:20:35;21.95;;;14.27;;
37297;SDS011;30517;51.932;4.278;2024-03-08T07:23:17;24.05;;;15.43;;
37297;SDS011;30517;51.932;4.278;2024-03-08T07:26:16;23.90;;;14.75;;
37297;SDS011;30517;51.932;4.278;2024-03-08T07:28:59;21.10;;;15.75;;
37297;SDS011;30517;51.932;4.278;2024-03-08T07:31:40;23.20;;;15.07;;
37297;SDS011;30517;51.932;4.278;2024-03-08T07:34:21;24.98;;;16.27;;
37297;SDS011;30517;51.932;4.278;2024-03-08T07:37:02;22.25;;;15.05;;
37297;SDS011;30517;51.932;4.278;2024-03-08T07:39:44;23.65;;;15.45;;
37297;SDS011;30517;51.932;4.278;2024-03-08T07:42:24;23.75;;;15.30;;
37297;SDS011;30517;51.932;4.278;2024-03-08T07:45:05;24.50;;;14.95;;
37297;SDS011;30517;51.932;4.278;2024-03-08T07:47:48;22.13;;;15.52;;
37297;SDS011;30517;51.932;4.278;2024-03-08T07:50:29;20.75;;;14.63;;
37297;SDS011;30517;51.932;4.278;2024-03-08T07:53:10;24.55;;;16.65;;
37297;SDS011;30517;51.932;4.278;2024-03-08T07:55:51;24.13;;;16.95;;
37297;SDS011;30517;51.932;4.278;2024-03-08T07:58:31;29.70;;;16.98;;
37297;SDS011;30517;51.932;4.278;2024-03-08T08:01:16;26.23;;;15.52;;
37297;SDS011;30517;51.932;4.278;2024-03-08T08:03:59;23.77;;;15.73;;
37297;SDS011;30517;51.932;4.278;2024-03-08T08:06:43;23.15;;;15.85;;
37297;SDS011;30517;51.932;4.278;2024-03-08T08:09:24;22.20;;;15.02;;
37297;SDS011;30517;51.932;4.278;2024-03-08T08:12:14;25.77;;;14.60;;
37297;SDS011;30517;51.932;4.278;2024-03-08T08:14:56;21.60;;;15.00;;
37297;SDS011;30517;51.932;4.278;2024-03-08T08:17:37;23.58;;;14.50;;
37297;SDS011;30517;51.932;4.278;2024-03-08T08:20:18;23.05;;;15.48;;
37297;SDS011;30517;51.932;4.278;2024-03-08T08:22:59;23.38;;;15.32;;
37297;SDS011;30517;51.932;4.278;2024-03-08T08:25:40;23.15;;;16.92;;
37297;SDS011;30517;51.932;4.278;2024-03-08T08:28:21;22.98;;;14.30;;
37297;SDS011;30517;51.932;4.278;2024-03-08T08:31:02;22.73;;;14.50;;
37297;SDS011;30517;51.932;4.278;2024-03-08T08:33:44;21.65;;;15.27;;
37297;SDS011;30517;51.932;4.278;2024-03-08T08:36:25;25.17;;;15.98;;
37297;SDS011;30517;51.932;4.278;2024-03-08T08:39:06;25.00;;;15.52;;
37297;SDS011;30517;51.932;4.278;2024-03-08T08:41:53;26.90;;;16.63;;
37297;SDS011;30517;51.932;4.278;2024-03-08T08:44:34;24.45;;;15.32;;
37297;SDS011;30517;51.932;4.278;2024-03-08T08:47:15;23.95;;;15.45;;
37297;SDS011;30517;51.932;4.278;2024-03-08T08:52:40;25.15;;;15.30;;
37297;SDS011;30517;51.932;4.278;2024-03-08T08:55:23;22.40;;;14.93;;
37297;SDS011;30517;51.932;4.278;2024-03-08T08:58:07;20.60;;;13.63;;
37297;SDS011;30517;51.932;4.278;2024-03-08T09:00:48;24.80;;;15.32;;
37297;SDS011;30517;51.932;4.278;2024-03-08T09:03:30;20.70;;;14.23;;
37297;SDS011;30517;51.932;4.278;2024-03-08T09:06:11;21.70;;;14.45;;
37297;SDS011;30517;51.932;4.278;2024-03-08T09:08:51;23.92;;;14.68;;
37297;SDS011;30517;51.932;4.278;2024-03-08T09:11:32;23.73;;;14.90;;
37297;SDS011;30517;51.932;4.278;2024-03-08T09:14:13;23.95;;;15.48;;
37297;SDS011;30517;51.932;4.278;2024-03-08T09:16:54;23.60;;;15.20;;
37297;SDS011;30517;51.932;4.278;2024-03-08T09:19:35;23.60;;;15.60;;
37297;SDS011;30517;51.932;4.278;2024-03-08T09:22:16;25.13;;;15.93;;
37297;SDS011;30517;51.932;4.278;2024-03-08T09:24:58;23.52;;;14.73;;
37297;SDS011;30517;51.932;4.278;2024-03-08T09:27:39;23.92;;;13.68;;
37297;SDS011;30517;51.932;4.278;2024-03-08T09:30:21;23.65;;;14.93;;
37297;SDS011;30517;51.932;4.278;2024-03-08T09:33:02;21.80;;;14.73;;
37297;SDS011;30517;51.932;4.278;2024-03-08T09:35:43;22.58;;;14.43;;
37297;SDS011;30517;51.932;4.278;2024-03-08T09:38:24;22.35;;;14.32;;
37297;SDS011;30517;51.932;4.278;2024-03-08T09:41:05;23.38;;;15.07;;
37297;SDS011;30517;51.932;4.278;2024-03-08T09:43:46;24.08;;;15.48;;
37297;SDS011;30517;51.932;4.278;2024-03-08T09:46:27;20.90;;;14.15;;
37297;SDS011;30517;51.932;4.278;2024-03-08T09:49:08;22.85;;;15.45;;
37297;SDS011;30517;51.932;4.278;2024-03-08T09:51:51;22.92;;;14.90;;
37297;SDS011;30517;51.932;4.278;2024-03-08T09:54:32;21.45;;;14.07;;
37297;SDS011;30517;51.932;4.278;2024-03-08T09:57:13;23.95;;;15.65;;
37297;SDS011;30517;51.932;4.278;2024-03-08T09:59:55;22.00;;;14.85;;
37297;SDS011;30517;51.932;4.278;2024-03-08T10:02:36;21.35;;;13.55;;
37297;SDS011;30517;51.932;4.278;2024-03-08T10:05:17;23.42;;;15.85;;
37297;SDS011;30517;51.932;4.278;2024-03-08T10:07:58;23.50;;;15.43;;
37297;SDS011;30517;51.932;4.278;2024-03-08T10:10:39;23.30;;;14.98;;
37297;SDS011;30517;51.932;4.278;2024-03-08T10:13:20;27.98;;;15.77;;
37297;SDS011;30517;51.932;4.278;2024-03-08T10:16:01;24.90;;;15.13;;
37297;SDS011;30517;51.932;4.278;2024-03-08T10:18:42;24.13;;;15.10;;
37297;SDS011;30517;51.932;4.278;2024-03-08T10:21:26;24.10;;;16.40;;
37297;SDS011;30517;51.932;4.278;2024-03-08T10:24:10;26.17;;;15.43;;
37297;SDS011;30517;51.932;4.278;2024-03-08T10:26:53;21.83;;;14.32;;
37297;SDS011;30517;51.932;4.278;2024-03-08T10:29:39;24.05;;;14.35;;
37297;SDS011;30517;51.932;4.278;2024-03-08T10:32:24;23.65;;;14.73;;
37297;SDS011;30517;51.932;4.278;2024-03-08T10:35:04;24.08;;;15.57;;
37297;SDS011;30517;51.932;4.278;2024-03-08T10:37:48;23.50;;;16.02;;
37297;SDS011;30517;51.932;4.278;2024-03-08T10:40:38;22.92;;;15.50;;
37297;SDS011;30517;51.932;4.278;2024-03-08T10:43:22;23.92;;;15.38;;
37297;SDS011;30517;51.932;4.278;2024-03-08T10:46:18;21.38;;;14.50;;
37297;SDS011;30517;51.932;4.278;2024-03-08T10:49:03;22.02;;;14.85;;
37297;SDS011;30517;51.932;4.278;2024-03-08T10:51:47;22.23;;;14.93;;
37297;SDS011;30517;51.932;4.278;2024-03-08T10:54:31;22.00;;;14.55;;
37297;SDS011;30517;51.932;4.278;2024-03-08T10:57:14;21.33;;;13.63;;
37297;SDS011;30517;51.932;4.278;2024-03-08T11:00:04;22.10;;;14.63;;
37297;SDS011;30517;51.932;4.278;2024-03-08T11:02:50;24.15;;;15.27;;
37297;SDS011;30517;51.932;4.278;2024-03-08T11:08:16;21.33;;;14.70;;
37297;SDS011;30517;51.932;4.278;2024-03-08T11:11:00;21.95;;;14.85;;
37297;SDS011;30517;51.932;4.278;2024-03-08T11:13:41;21.08;;;14.48;;
37297;SDS011;30517;51.932;4.278;2024-03-08T11:22:04;25.77;;;15.50;;
37297;SDS011;30517;51.932;4.278;2024-03-08T11:24:45;21.38;;;13.93;;
37297;SDS011;30517;51.932;4.278;2024-03-08T11:27:29;22.98;;;14.52;;
37297;SDS011;30517;51.932;4.278;2024-03-08T11:30:11;26.98;;;14.20;;
37297;SDS011;30517;51.932;4.278;2024-03-08T11:32:52;22.42;;;14.45;;
37297;SDS011;30517;51.932;4.278;2024-03-08T11:35:33;25.17;;;15.02;;
37297;SDS011;30517;51.932;4.278;2024-03-08T11:38:13;22.40;;;13.20;;
37297;SDS011;30517;51.932;4.278;2024-03-08T11:40:56;24.63;;;14.63;;
37297;SDS011;30517;51.932;4.278;2024-03-08T11:43:37;21.73;;;14.88;;
37297;SDS011;30517;51.932;4.278;2024-03-08T11:46:20;22.52;;;13.73;;
37297;SDS011;30517;51.932;4.278;2024-03-08T11:49:01;20.52;;;14.18;;
37297;SDS011;30517;51.932;4.278;2024-03-08T11:51:43;21.02;;;13.75;;
37297;SDS011;30517;51.932;4.278;2024-03-08T11:54:24;21.67;;;14.27;;
37297;SDS011;30517;51.932;4.278;2024-03-08T11:57:05;19.48;;;13.63;;
37297;SDS011;30517;51.932;4.278;2024-03-08T11:59:50;24.85;;;14.27;;
37297;SDS011;30517;51.932;4.278;2024-03-08T12:02:35;20.40;;;13.25;;
37297;SDS011;30517;51.932;4.278;2024-03-08T12:05:18;20.45;;;13.13;;
37297;SDS011;30517;51.932;4.278;2024-03-08T12:08:00;21.83;;;13.25;;
37297;SDS011;30517;51.932;4.278;2024-03-08T12:10:42;22.23;;;13.02;;
37297;SDS011;30517;51.932;4.278;2024-03-08T12:13:23;21.25;;;12.52;;
37297;SDS011;30517;51.932;4.278;2024-03-08T12:16:05;17.50;;;12.10;;
37297;SDS011;30517;51.932;4.278;2024-03-08T12:18:46;21.15;;;13.20;;
37297;SDS011;30517;51.932;4.278;2024-03-08T12:21:27;21.75;;;14.07;;
37297;SDS011;30517;51.932;4.278;2024-03-08T12:24:09;21.95;;;15.05;;
37297;SDS011;30517;51.932;4.278;2024-03-08T12:26:51;20.10;;;13.52;;
37297;SDS011;30517;51.932;4.278;2024-03-08T12:29:32;24.85;;;15.80;;
37297;SDS011;30517;51.932;4.278;2024-03-08T12:32:13;22.20;;;14.60;;
37297;SDS011;30517;51.932;4.278;2024-03-08T12:34:54;24.27;;;14.93;;
37297;SDS011;30517;51.932;4.278;2024-03-08T12:37:35;19.75;;;13.63;;
37297;SDS011;30517;51.932;4.278;2024-03-08T12:40:17;22.05;;;14.38;;
37297;SDS011;30517;51.932;4.278;2024-03-08T12:42:59;22.17;;;14.50;;
37297;SDS011;30517;51.932;4.278;2024-03-08T12:45:40;20.98;;;13.73;;
37297;SDS011;30517;51.932;4.278;2024-03-08T12:48:20;19.55;;;13.02;;
37297;SDS011;30517;51.932;4.278;2024-03-08T12:51:01;20.58;;;12.95;;
37297;SDS011;30517;51.932;4.278;2024-03-08T12:53:42;21.88;;;14.32;;
37297;SDS011;30517;51.932;4.278;2024-03-08T12:56:31;20.38;;;13.25;;
37297;SDS011;30517;51.932;4.278;2024-03-08T12:59:13;19.90;;;12.60;;
37297;SDS011;30517;51.932;4.278;2024-03-08T13:01:54;18.30;;;12.07;;
37297;SDS011;30517;51.932;4.278;2024-03-08T13:04:38;19.17;;;12.35;;
37297;SDS011;30517;51.932;4.278;2024-03-08T13:07:19;18.33;;;12.63;;
37297;SDS011;30517;51.932;4.278;2024-03-08T13:10:00;21.27;;;11.95;;
37297;SDS011;30517;51.932;4.278;2024-03-08T13:12:41;19.63;;;11.82;;
37297;SDS011;30517;51.932;4.278;2024-03-08T13:15:23;17.52;;;11.55;;
37297;SDS011;30517;51.932;4.278;2024-03-08T13:18:04;18.98;;;11.18;;
37297;SDS011;30517;51.932;4.278;2024-03-08T13:20:45;19.88;;;11.27;;
37297;SDS011;30517;51.932;4.278;2024-03-08T13:23:29;20.10;;;12.52;;
37297;SDS011;30517;51.932;4.278;2024-03-08T13:26:10;20.83;;;12.38;;
37297;SDS011;30517;51.932;4.278;2024-03-08T13:28:55;17.45;;;12.15;;
37297;SDS011;30517;51.932;4.278;2024-03-08T13:31:36;16.75;;;11.18;;
37297;SDS011;30517;51.932;4.278;2024-03-08T13:34:17;19.95;;;12.38;;
37297;SDS011;30517;51.932;4.278;2024-03-08T13:36:58;20.30;;;12.60;;
37297;SDS011;30517;51.932;4.278;2024-03-08T13:39:40;18.48;;;12.52;;
37297;SDS011;30517;51.932;4.278;2024-03-08T13:42:23;21.13;;;12.40;;
37297;SDS011;30517;51.932;4.278;2024-03-08T13:45:05;22.83;;;13.35;;
37297;SDS011;30517;51.932;4.278;2024-03-08T13:47:47;22.77;;;12.80;;
37297;SDS011;30517;51.932;4.278;2024-03-08T13:50:29;19.48;;;12.27;;
37297;SDS011;30517;51.932;4.278;2024-03-08T13:53:10;20.08;;;13.45;;
37297;SDS011;30517;51.932;4.278;2024-03-08T13:55:51;17.92;;;12.40;;
37297;SDS011;30517;51.932;4.278;2024-03-08T13:58:32;20.55;;;12.65;;
37297;SDS011;30517;51.932;4.278;2024-03-08T14:01:12;22.60;;;13.88;;
37297;SDS011;30517;51.932;4.278;2024-03-08T14:03:53;19.25;;;12.52;;
37297;SDS011;30517;51.932;4.278;2024-03-08T14:06:34;22.48;;;12.80;;
37297;SDS011;30517;51.932;4.278;2024-03-08T14:09:15;21.65;;;13.25;;
37297;SDS011;30517;51.932;4.278;2024-03-08T14:11:59;20.98;;;12.55;;
37297;SDS011;30517;51.932;4.278;2024-03-08T14:14:43;20.83;;;12.73;;
37297;SDS011;30517;51.932;4.278;2024-03-08T14:17:27;19.23;;;11.82;;
37297;SDS011;30517;51.932;4.278;2024-03-08T14:20:11;19.70;;;12.68;;
37297;SDS011;30517;51.932;4.278;2024-03-08T14:22:56;21.33;;;13.75;;
37297;SDS011;30517;51.932;4.278;2024-03-08T14:25:37;18.13;;;11.90;;
37297;SDS011;30517;51.932;4.278;2024-03-08T14:28:17;20.17;;;11.50;;
37297;SDS011;30517;51.932;4.278;2024-03-08T14:30:59;20.10;;;13.50;;
37297;SDS011;30517;51.932;4.278;2024-03-08T14:33:44;17.48;;;12.00;;
37297;SDS011;30517;51.932;4.278;2024-03-08T14:36:29;21.52;;;13.05;;
37297;SDS011;30517;51.932;4.278;2024-03-08T14:39:10;18.42;;;11.95;;
37297;SDS011;30517;51.932;4.278;2024-03-08T14:41:51;20.27;;;12.85;;
37297;SDS011;30517;51.932;4.278;2024-03-08T14:44:34;18.33;;;12.57;;
37297;SDS011;30517;51.932;4.278;2024-03-08T14:47:16;19.50;;;12.98;;
37297;SDS011;30517;51.932;4.278;2024-03-08T14:49:57;19.85;;;12.77;;
37297;SDS011;30517;51.932;4.278;2024-03-08T14:52:38;20.00;;;12.52;;
37297;SDS011;30517;51.932;4.278;2024-03-08T14:55:20;17.88;;;12.20;;
37297;SDS011;30517;51.932;4.278;2024-03-08T14:58:05;20.77;;;13.02;;
37297;SDS011;30517;51.932;4.278;2024-03-08T15:00:46;19.27;;;12.93;;
37297;SDS011;30517;51.932;4.278;2024-03-08T15:03:27;17.88;;;12.10;;
37297;SDS011;30517;51.932;4.278;2024-03-08T15:06:10;20.40;;;12.23;;
37297;SDS011;30517;51.932;4.278;2024-03-08T15:08:52;18.38;;;12.55;;
37297;SDS011;30517;51.932;4.278;2024-03-08T15:11:32;20.30;;;11.85;;
37297;SDS011;30517;51.932;4.278;2024-03-08T15:14:14;17.67;;;11.15;;
37297;SDS011;30517;51.932;4.278;2024-03-08T15:16:59;20.60;;;12.63;;
37297;SDS011;30517;51.932;4.278;2024-03-08T15:19:41;17.45;;;11.68;;
37297;SDS011;30517;51.932;4.278;2024-03-08T15:22:23;18.05;;;12.10;;
37297;SDS011;30517;51.932;4.278;2024-03-08T15:25:04;17.60;;;11.77;;
37297;SDS011;30517;51.932;4.278;2024-03-08T15:27:45;18.17;;;12.57;;
37297;SDS011;30517;51.932;4.278;2024-03-08T15:30:29;17.65;;;12.15;;
37297;SDS011;30517;51.932;4.278;2024-03-08T15:33:12;16.77;;;11.65;;
37297;SDS011;30517;51.932;4.278;2024-03-08T15:35:55;17.20;;;11.63;;
37297;SDS011;30517;51.932;4.278;2024-03-08T15:38:44;16.92;;;11.30;;
37297;SDS011;30517;51.932;4.278;2024-03-08T15:41:27;18.73;;;11.80;;
37297;SDS011;30517;51.932;4.278;2024-03-08T15:44:09;19.13;;;11.70;;
37297;SDS011;30517;51.932;4.278;2024-03-08T15:46:52;16.93;;;12.23;;
37297;SDS011;30517;51.932;4.278;2024-03-08T15:49:33;17.50;;;11.15;;
37297;SDS011;30517;51.932;4.278;2024-03-08T15:52:14;18.60;;;11.48;;
37297;SDS011;30517;51.932;4.278;2024-03-08T15:54:55;17.73;;;11.57;;
37297;SDS011;30517;51.932;4.278;2024-03-08T15:57:36;17.20;;;11.70;;